createdAt,value
2023-03-29T00:03:45.695Z,31.93
2023-03-29T00:09:04.860Z,31.30
2023-03-29T00:14:07.620Z,32.77
2023-03-29T00:19:10.571Z,31.10
2023-03-29T00:24:13.018Z,32.37
2023-03-29T00:29:16.117Z,35.70
2023-03-29T00:34:18.714Z,36.87
2023-03-29T00:39:21.965Z,36.77
2023-03-29T00:44:55.355Z,33.63
2023-03-29T00:50:02.845Z,33.53
2023-03-29T00:55:11.103Z,36.53
2023-03-29T01:00:20.973Z,41.87
2023-03-29T01:05:32.300Z,42.23
2023-03-29T01:10:40.605Z,42.50
2023-03-29T01:15:46.351Z,46.73
2023-03-29T01:21:15.384Z,43.57
2023-03-29T01:26:40.957Z,40.40
2023-03-29T01:31:52.908Z,39.80
2023-03-29T01:37:04.561Z,41.70
2023-03-29T01:42:13.244Z,39.47
2023-03-29T01:47:37.874Z,37.83
2023-03-29T01:53:05.482Z,39.07
2023-03-29T01:58:11.982Z,34.50
2023-03-29T02:03:17.600Z,34.80
2023-03-29T02:08:23.195Z,34.20
2023-03-29T02:13:26.078Z,31.43
2023-03-29T02:18:30.110Z,29.37
2023-03-29T02:23:45.469Z,30.10
2023-03-29T02:28:48.796Z,29.40
2023-03-29T02:34:16.073Z,28.40
2023-03-29T02:39:19.811Z,27.73
2023-03-29T02:44:31.316Z,29.53
2023-03-29T02:49:33.979Z,28.70
2023-03-29T02:54:43.080Z,30.63
2023-03-29T02:59:45.737Z,31.57
2023-03-29T03:04:48.460Z,27.40
2023-03-29T03:09:52.033Z,25.47
2023-03-29T03:14:54.742Z,25.87
2023-03-29T03:19:57.273Z,25.13
2023-03-29T03:24:59.750Z,23.03
2023-03-29T03:30:05.431Z,23.47
2023-03-29T03:35:26.406Z,25.37
2023-03-29T03:40:29.053Z,22.83
2023-03-29T03:45:31.835Z,22.53
2023-03-29T03:50:49.879Z,20.40
2023-03-29T03:55:56.007Z,21.87
2023-03-29T04:01:03.201Z,20.30
2023-03-29T04:06:23.138Z,22.10
2023-03-29T04:11:59.592Z,22.63
2023-03-29T04:17:02.313Z,21.70
2023-03-29T04:22:23.545Z,22.27
2023-03-29T04:27:26.277Z,20.43
2023-03-29T04:32:29.375Z,20.43
2023-03-29T04:37:40.299Z,18.90
2023-03-29T04:42:45.829Z,20.37
2023-03-29T04:47:48.523Z,18.80
2023-03-29T04:52:54.146Z,18.73
2023-03-29T04:57:58.306Z,19.83
2023-03-29T05:03:07.548Z,21.27
2023-03-29T05:08:14.615Z,21.67
2023-03-29T05:13:37.782Z,23.17
2023-03-29T05:18:40.786Z,22.60
2023-03-29T05:23:43.517Z,13.53
2023-03-29T05:28:52.340Z,22.57
2023-03-29T05:33:55.208Z,25.57
2023-03-29T05:38:59.836Z,21.40
2023-03-29T05:44:04.150Z,19.67
2023-03-29T05:49:07.338Z,20.63
2023-03-29T05:54:28.923Z,19.73
2023-03-29T05:59:33.892Z,20.43
2023-03-29T06:04:37.473Z,26.57
2023-03-29T06:09:55.561Z,26.83
2023-03-29T06:15:03.967Z,20.40
2023-03-29T06:20:33.114Z,19.87
2023-03-29T06:25:43.240Z,20.33
2023-03-29T06:30:46.804Z,21.37
2023-03-29T06:35:50.573Z,22.43
2023-03-29T06:41:03.953Z,24.83
2023-03-29T06:46:23.453Z,24.10
2023-03-29T06:51:31.379Z,24.80
2023-03-29T06:56:34.528Z,22.63
2023-03-29T07:01:40.168Z,17.30
2023-03-29T07:07:01.649Z,16.53
2023-03-29T07:12:07.556Z,15.33
2023-03-29T07:17:10.667Z,13.57
2023-03-29T07:22:16.436Z,13.57
2023-03-29T07:27:24.479Z,13.07
2023-03-29T07:32:28.194Z,13.13
2023-03-29T07:37:46.434Z,13.50
2023-03-29T07:42:54.189Z,13.47
2023-03-29T07:47:59.564Z,10.87
2023-03-29T07:53:09.103Z,10.10
2023-03-29T07:58:11.910Z,10.93
2023-03-29T08:03:15.415Z,9.63
2023-03-29T08:08:18.404Z,11.97
2023-03-29T08:13:32.282Z,11.17
2023-03-29T08:18:57.655Z,12.90
2023-03-29T08:24:06.259Z,9.10
2023-03-29T08:29:23.286Z,8.53
2023-03-29T08:34:25.964Z,9.60
2023-03-29T08:39:43.906Z,8.50
2023-03-29T08:45:30.171Z,9.70
2023-03-29T08:50:48.110Z,7.93
2023-03-29T08:55:53.089Z,7.87
2023-03-29T09:01:11.659Z,8.07
2023-03-29T09:06:27.559Z,7.37
2023-03-29T09:11:59.947Z,7.50
2023-03-29T09:17:02.869Z,6.67
2023-03-29T09:22:05.651Z,6.13
2023-03-29T09:27:27.385Z,6.57
2023-03-29T09:33:08.779Z,5.33
2023-03-29T09:38:30.166Z,6.27
2023-03-29T09:43:37.932Z,4.53
2023-03-29T09:48:46.528Z,4.70
2023-03-29T09:53:49.861Z,4.80
2023-03-29T09:59:12.396Z,4.60
2023-03-29T10:04:16.890Z,4.87
2023-03-29T10:09:28.997Z,4.00
2023-03-29T10:14:46.520Z,4.40
2023-03-29T10:20:01.457Z,4.80
2023-03-29T10:25:13.688Z,4.17
2023-03-29T10:30:25.460Z,6.27
2023-03-29T10:35:34.147Z,6.67
2023-03-29T10:40:43.415Z,4.80
2023-03-29T10:45:53.977Z,5.57
2023-03-29T10:51:02.060Z,5.17
2023-03-29T10:56:20.080Z,4.97
2023-03-29T11:02:00.320Z,4.50
2023-03-29T11:07:08.696Z,4.90
2023-03-29T11:12:30.221Z,3.73
2023-03-29T11:18:16.234Z,3.73
2023-03-29T11:24:00.992Z,4.23
2023-03-29T11:29:18.940Z,5.10
2023-03-29T11:34:53.311Z,3.80
2023-03-29T11:40:36.147Z,4.03
2023-03-29T11:45:45.177Z,4.00
2023-03-29T11:51:19.762Z,4.80
2023-03-29T11:56:38.248Z,4.27
2023-03-29T12:02:05.629Z,4.33
2023-03-29T12:07:19.636Z,5.63
2023-03-29T12:12:46.120Z,4.80
2023-03-29T12:18:32.218Z,4.40
2023-03-29T12:23:34.817Z,4.90
2023-03-29T12:29:14.381Z,5.33
2023-03-29T12:34:36.707Z,4.57
2023-03-29T12:40:19.299Z,4.33
2023-03-29T12:45:48.456Z,5.77
2023-03-29T12:50:54.276Z,6.13
2023-03-29T12:56:02.959Z,5.47
2023-03-29T13:01:21.490Z,3.97
2023-03-29T13:06:33.875Z,4.07
2023-03-29T13:11:42.716Z,4.40
2023-03-29T13:16:45.412Z,3.80
2023-03-29T13:22:00.490Z,3.67
2023-03-29T13:27:06.006Z,4.47
2023-03-29T13:32:39.206Z,5.03
2023-03-29T13:37:58.182Z,5.00
2023-03-29T13:43:19.244Z,3.20
2023-03-29T13:48:30.063Z,3.83
2023-03-29T13:53:38.026Z,2.40
2023-03-29T13:58:54.139Z,4.53
2023-03-29T14:03:57.658Z,5.00
2023-03-29T14:09:07.293Z,2.40
2023-03-29T14:14:10.698Z,4.57
2023-03-29T14:19:17.562Z,5.00
2023-03-29T14:24:27.702Z,4.90
2023-03-29T14:29:34.311Z,5.53
2023-03-29T14:34:37.398Z,4.90
2023-03-29T14:39:41.173Z,6.00
2023-03-29T14:44:44.893Z,3.77
2023-03-29T14:49:47.596Z,3.23
2023-03-29T14:54:53.285Z,4.10
2023-03-29T15:00:00.748Z,3.03
2023-03-29T15:05:24.928Z,5.50
2023-03-29T15:10:31.656Z,5.80
2023-03-29T15:15:38.355Z,3.20
2023-03-29T15:20:41.988Z,4.50
2023-03-29T15:25:57.218Z,5.90
2023-03-29T15:31:19.170Z,4.57
2023-03-29T15:36:22.552Z,4.70
2023-03-29T15:41:26.279Z,4.20
2023-03-29T15:46:29.221Z,4.47
2023-03-29T15:51:32.012Z,8.60
2023-03-29T15:56:40.311Z,5.50
2023-03-29T16:01:44.750Z,5.37
2023-03-29T16:06:50.138Z,7.03
2023-03-29T16:11:52.682Z,5.10
2023-03-29T16:16:59.405Z,9.17
2023-03-29T16:22:07.158Z,6.20
2023-03-29T16:27:09.737Z,3.80
2023-03-29T16:32:12.263Z,2.93
2023-03-29T16:37:14.832Z,3.67
2023-03-29T16:47:20.238Z,4.93
2023-03-29T16:52:23.286Z,4.40
2023-03-29T16:57:26.727Z,1.97
2023-03-29T17:02:29.395Z,3.50
2023-03-29T17:07:32.455Z,2.73
2023-03-29T17:12:36.176Z,6.00
2023-03-29T17:17:38.978Z,4.73
2023-03-29T17:22:41.773Z,3.73
2023-03-29T17:27:45.468Z,5.63
2023-03-29T17:32:48.559Z,3.00
2023-03-29T17:37:51.218Z,5.73
2023-03-29T17:42:54.267Z,4.07
2023-03-29T17:47:57.202Z,7.80
2023-03-29T17:52:59.763Z,10.33
2023-03-29T17:58:02.413Z,6.23
2023-03-29T18:03:05.269Z,7.97
2023-03-29T18:08:08.734Z,10.57
2023-03-29T18:13:13.936Z,12.17
2023-03-29T18:18:16.956Z,12.83
2023-03-29T18:23:19.880Z,20.23
2023-03-29T18:28:25.230Z,26.77
2023-03-29T18:33:28.746Z,29.77
2023-03-29T18:38:35.302Z,31.67
2023-03-29T18:43:39.883Z,32.23
2023-03-29T18:48:42.664Z,27.90
2023-03-29T18:53:45.226Z,29.43
2023-03-29T18:58:48.469Z,22.13
2023-03-29T19:03:51.653Z,20.27
2023-03-29T19:08:55.458Z,19.50
2023-03-29T19:13:58.029Z,17.60
2023-03-29T19:19:00.553Z,20.33
2023-03-29T19:24:05.073Z,19.37
2023-03-29T19:29:08.629Z,18.97
2023-03-29T19:34:11.316Z,18.80
2023-03-29T19:39:14.051Z,17.73
2023-03-29T19:44:16.606Z,18.03
2023-03-29T19:49:19.336Z,18.33
2023-03-29T19:54:22.060Z,20.30
2023-03-29T19:59:25.872Z,17.77
2023-03-29T20:04:28.891Z,17.53
2023-03-29T20:09:32.817Z,15.03
2023-03-29T20:14:37.944Z,8.13
2023-03-29T20:19:44.116Z,6.60
2023-03-29T20:24:46.719Z,9.47
2023-03-29T20:29:49.154Z,10.90
2023-03-29T20:34:51.741Z,6.70
2023-03-29T20:39:56.732Z,4.97
2023-03-29T20:45:00.378Z,10.00
2023-03-29T20:50:04.207Z,11.43
2023-03-29T20:55:07.326Z,11.50
2023-03-29T21:00:12.027Z,13.60
2023-03-29T21:05:15.736Z,15.57
2023-03-29T21:10:18.166Z,15.67
2023-03-29T21:15:21.056Z,16.40
2023-03-29T21:20:24.241Z,15.93
2023-03-29T21:25:26.937Z,13.00
2023-03-29T21:30:31.482Z,11.10
2023-03-29T21:35:35.622Z,9.97
2023-03-29T21:40:38.230Z,12.70
2023-03-29T21:45:40.682Z,9.13
2023-03-29T21:50:43.687Z,9.97
2023-03-29T21:55:48.959Z,7.97
2023-03-29T22:00:51.684Z,12.83
2023-03-29T22:06:02.690Z,13.00
2023-03-29T22:11:14.349Z,10.80
2023-03-29T22:16:18.726Z,14.17
2023-03-29T22:21:28.528Z,12.47
2023-03-29T22:26:32.685Z,13.90
2023-03-29T22:31:35.694Z,13.83
2023-03-29T22:36:38.539Z,13.47
2023-03-29T22:41:42.061Z,15.00
2023-03-29T22:46:44.669Z,17.03
2023-03-29T22:51:47.953Z,18.13
2023-03-29T22:56:50.525Z,16.10
2023-03-29T23:01:53.410Z,14.70
2023-03-29T23:06:56.435Z,13.03
2023-03-29T23:11:59.583Z,11.47
2023-03-29T23:17:02.475Z,9.93
2023-03-29T23:22:05.114Z,11.20
2023-03-29T23:27:07.768Z,10.57
2023-03-29T23:32:10.222Z,12.00
2023-03-29T23:37:12.710Z,11.27
2023-03-29T23:42:15.191Z,10.37
2023-03-29T23:47:17.695Z,10.33
2023-03-29T23:52:20.297Z,11.40
2023-03-29T23:57:23.004Z,11.07
